Archival Weather

Chicago O'Hare International

Chicago, Illinois (KORD)

Report from: Tuesday, May 2, 2023 6:51 AM CDT
Current time: Friday, February 23, 2024 2:55 PM CST

Current weather – Weather history – Daily summaries
Weather forecast

Temperature6.7°C (44.1°F)
Wind chill3.0°C (37.4°F)
Dew point0.0°C (32.0°F)
Winds 12 kts (6.2 m/s, 13.8 mph) Northwest (310°)
Visibility10 mi. (16.1 km)
Clouds Few clouds 3,500 ft. (1,067 m)
Ceiling: Broken clouds 7,000 ft. (2,134 m)
Broken clouds 14,000 ft. (4,267 m)
Altimeter29.57 in.Hg (1001 mB)
Precip last 24 hours0.08 in. (2 mm)
Relative humidity62 %
Density altitude-501 ft. (-153 m)
Sea-level pressure100.1 kPa (1001 mB, 29.57 in.Hg)
Max temp last 6 hours7.8°C (46.0°F)
Min temp last 6 hours5.6°C (42.1°F)
Remarks Automated weather observing station with precipitation discriminator
Pressure rising more quickly
Flight conditions Visual Meteorological Conditions
Raw dataKORD 021151Z 31012KT 10SM FEW035 BKN070 BKN140 07/00 A2957 RMK AO2 SLP014 70008 T00670000 10078 20056 53013
An error has occurred. This application may no longer respond until reloaded. Reload 🗙